Time;durP1;ratioP1;P1;durP2;ratioP2;P2;SDS_P1;SDS_P2;PMS_P1;PMS_P2;Temp;Humidity;BMP_temperature;BMP_pressure;BME280_temperature;BME280_humidity;BME280_pressure;Samples;Min_cycle;Max_cycle;Signal;HPM_P1;HPM_P2
2023/09/18 00:00:21;;;;;;;19.05;8.52;;;;;;;;;;5088885;28;20143;-90
2023/09/18 00:02:48;;;;;;;11.88;8.40;;;;;;;;;;5091401;28;20048;-87
2023/09/18 00:05:19;;;;;;;13.27;9.25;;;;;;;;;;5097052;28;20058;-88
2023/09/18 00:07:46;;;;;;;11.63;7.95;;;;;;;;;;5089855;28;20037;-89
2023/09/18 00:10:13;;;;;;;13.57;8.82;;;;;;;;;;5092017;28;20049;-90
2023/09/18 00:12:43;;;;;;;14.85;8.50;;;;;;;;;;5091338;28;20064;-89
2023/09/18 00:15:10;;;;;;;12.60;8.23;;;;;;;;;;5088244;28;20055;-90
2023/09/18 00:17:38;;;;;;;9.98;7.93;;;;;;;;;;5088272;28;20076;-89
2023/09/18 00:20:06;;;;;;;12.10;7.88;;;;;;;;;;5092838;28;20080;-90
2023/09/18 00:22:35;;;;;;;11.38;8.23;;;;;;;;;;5100818;28;20055;-88
2023/09/18 00:25:04;;;;;;;13.30;8.65;;;;;;;;;;5100626;28;20072;-87
2023/09/18 00:27:32;;;;;;;11.85;8.40;;;;;;;;;;5099340;28;20033;-89
2023/09/18 00:30:02;;;;;;;13.00;7.78;;;;;;;;;;5098559;28;20040;-89
2023/09/18 00:32:30;;;;;;;10.00;8.55;;;;;;;;;;5096781;28;20055;-90
2023/09/18 00:34:57;;;;;;;13.50;8.75;;;;;;;;;;5096591;28;20080;-89
2023/09/18 00:37:25;;;;;;;10.98;9.00;;;;;;;;;;5092209;28;20063;-89
2023/09/18 00:40:01;;;;;;;11.35;8.95;;;;;;;;;;5089402;28;20064;-89
2023/09/18 00:42:32;;;;;;;12.65;8.52;;;;;;;;;;5089004;28;20052;-89
2023/09/18 00:45:00;;;;;;;13.80;9.00;;;;;;;;;;5088093;28;20386;-88
2023/09/18 00:47:30;;;;;;;11.82;8.40;;;;;;;;;;5087987;28;20083;-89
2023/09/18 00:49:58;;;;;;;12.45;8.60;;;;;;;;;;5087643;28;20053;-88
2023/09/18 00:52:27;;;;;;;13.13;9.15;;;;;;;;;;5087722;28;20054;-90
2023/09/18 00:55:01;;;;;;;13.23;9.35;;;;;;;;;;5088150;28;20056;-89
2023/09/18 00:57:29;;;;;;;10.82;8.48;;;;;;;;;;5086628;28;20408;-89
2023/09/18 00:59:57;;;;;;;14.60;8.48;;;;;;;;;;5088289;28;20110;-88
2023/09/18 01:02:27;;;;;;;12.07;8.93;;;;;;;;;;5087245;28;20064;-89
2023/09/18 01:04:55;;;;;;;13.50;8.90;;;;;;;;;;5087030;28;20067;-89
2023/09/18 01:07:23;;;;;;;12.10;8.57;;;;;;;;;;5087774;28;20049;-89
2023/09/18 01:09:50;;;;;;;14.32;9.68;;;;;;;;;;5085710;28;20059;-90
2023/09/18 01:12:40;;;;;;;14.65;8.30;;;;;;;;;;5085966;28;20300;-89
2023/09/18 01:15:12;;;;;;;12.98;8.90;;;;;;;;;;5085520;28;20053;-88
2023/09/18 01:17:42;;;;;;;12.95;9.10;;;;;;;;;;5086837;28;20052;-90
2023/09/18 01:20:12;;;;;;;13.25;8.90;;;;;;;;;;5085608;28;20053;-88
2023/09/18 01:25:49;;;;;;;10.57;8.57;;;;;;;;;;5086841;28;20032;-89
2023/09/18 01:28:17;;;;;;;11.88;9.18;;;;;;;;;;5086682;28;20051;-89
2023/09/18 01:30:44;;;;;;;14.77;9.32;;;;;;;;;;5086656;28;20108;-90
2023/09/18 01:33:12;;;;;;;14.32;8.02;;;;;;;;;;5087476;28;20059;-90
2023/09/18 01:35:46;;;;;;;12.88;8.55;;;;;;;;;;5087797;28;20082;-89
2023/09/18 01:38:48;;;;;;;10.38;7.80;;;;;;;;;;5086687;28;20052;-88
2023/09/18 01:41:19;;;;;;;17.00;8.43;;;;;;;;;;5086189;28;20064;-89
2023/09/18 01:43:46;;;;;;;11.90;8.63;;;;;;;;;;5085608;28;20052;-87
2023/09/18 01:46:14;;;;;;;11.48;7.93;;;;;;;;;;5085949;28;20056;-88
2023/09/18 01:48:47;;;;;;;11.48;8.70;;;;;;;;;;5091595;28;20078;-88
2023/09/18 01:51:17;;;;;;;9.65;7.88;;;;;;;;;;5089716;28;20062;-90
2023/09/18 01:53:47;;;;;;;10.45;8.02;;;;;;;;;;5088619;28;20055;-89
2023/09/18 01:56:14;;;;;;;13.00;7.88;;;;;;;;;;5087210;28;20112;-89
2023/09/18 01:58:43;;;;;;;12.75;8.30;;;;;;;;;;5087828;28;20491;-89
2023/09/18 02:01:10;;;;;;;9.93;7.85;;;;;;;;;;5087955;28;20064;-89
2023/09/18 02:03:51;;;;;;;12.77;8.55;;;;;;;;;;5085015;28;20044;-90
2023/09/18 02:06:39;;;;;;;12.40;7.53;;;;;;;;;;5088761;28;20128;-88
2023/09/18 02:09:13;;;;;;;12.05;8.05;;;;;;;;;;5088390;28;20110;-88
2023/09/18 02:11:42;;;;;;;10.27;8.07;;;;;;;;;;5085365;28;20223;-89
2023/09/18 02:14:11;;;;;;;11.38;8.23;;;;;;;;;;5085664;28;20067;-89
2023/09/18 02:16:43;;;;;;;16.10;7.70;;;;;;;;;;5085705;28;20337;-89
2023/09/18 02:19:11;;;;;;;13.20;8.43;;;;;;;;;;5086279;28;20182;-89
2023/09/18 02:21:41;;;;;;;10.25;7.70;;;;;;;;;;5085008;28;20048;-89
2023/09/18 02:24:13;;;;;;;11.73;7.20;;;;;;;;;;5085180;28;20073;-88
2023/09/18 02:26:45;;;;;;;13.07;7.45;;;;;;;;;;5084368;28;20052;-89
2023/09/18 02:29:14;;;;;;;13.32;8.25;;;;;;;;;;5086950;28;20053;-89
2023/09/18 02:31:41;;;;;;;12.23;7.82;;;;;;;;;;5094765;28;20036;-88
2023/09/18 02:34:10;;;;;;;10.90;7.63;;;;;;;;;;5085828;28;20071;-89
2023/09/18 02:36:39;;;;;;;10.63;7.95;;;;;;;;;;5085996;28;20052;-88
2023/09/18 02:39:06;;;;;;;11.10;7.03;;;;;;;;;;5085647;28;20053;-90
2023/09/18 02:41:33;;;;;;;12.30;8.23;;;;;;;;;;5085583;28;20078;-88
2023/09/18 02:44:01;;;;;;;13.27;7.78;;;;;;;;;;5082972;28;20114;-88
2023/09/18 02:46:29;;;;;;;11.90;8.10;;;;;;;;;;5083836;28;20056;-89
2023/09/18 02:49:06;;;;;;;15.48;7.82;;;;;;;;;;5084491;28;20056;-89
2023/09/18 02:51:33;;;;;;;9.85;7.85;;;;;;;;;;5084163;28;20112;-88
2023/09/18 02:54:03;;;;;;;10.60;7.38;;;;;;;;;;5084786;28;20343;-89
2023/09/18 02:56:34;;;;;;;12.40;7.70;;;;;;;;;;5083695;28;20113;-89
2023/09/18 02:59:20;;;;;;;10.90;7.20;;;;;;;;;;5084792;28;20203;-89
2023/09/18 03:01:47;;;;;;;9.20;7.20;;;;;;;;;;5085111;28;20049;-88
2023/09/18 03:04:15;;;;;;;9.55;6.90;;;;;;;;;;5085416;28;20049;-87
2023/09/18 03:06:42;;;;;;;9.88;7.57;;;;;;;;;;5086146;28;20117;-88
2023/09/18 03:09:13;;;;;;;9.82;7.53;;;;;;;;;;5085911;28;20606;-89
2023/09/18 03:11:44;;;;;;;11.13;6.88;;;;;;;;;;5084354;28;20049;-88
2023/09/18 03:14:12;;;;;;;14.07;7.90;;;;;;;;;;5084824;28;20052;-89
2023/09/18 03:16:39;;;;;;;8.35;6.60;;;;;;;;;;5083465;28;20055;-88
2023/09/18 03:19:06;;;;;;;9.27;5.65;;;;;;;;;;5082653;28;20053;-89
2023/09/18 03:21:36;;;;;;;13.60;8.15;;;;;;;;;;5083140;28;20063;-88
2023/09/18 03:24:06;;;;;;;13.13;8.18;;;;;;;;;;5083409;28;20056;-89
2023/09/18 03:26:33;;;;;;;8.90;7.40;;;;;;;;;;5084317;28;20075;-87
2023/09/18 03:29:10;;;;;;;12.13;7.15;;;;;;;;;;5082589;28;20059;-89
2023/09/18 03:31:38;;;;;;;8.25;6.72;;;;;;;;;;5083543;28;20079;-89
2023/09/18 03:34:05;;;;;;;11.35;5.93;;;;;;;;;;5083468;28;20052;-89
2023/09/18 03:36:48;;;;;;;11.90;6.18;;;;;;;;;;5086855;28;20036;-89
2023/09/18 03:39:36;;;;;;;9.85;6.00;;;;;;;;;;5363241;22;20061;-88
2023/09/18 03:42:58;;;;;;;11.48;6.88;;;;;;;;;;5844832;22;20106;-90
2023/09/18 03:45:52;;;;;;;13.50;6.68;;;;;;;;;;5103166;22;20047;-88
2023/09/18 03:48:42;;;;;;;12.98;6.40;;;;;;;;;;5163451;22;20040;-88
2023/09/18 03:51:23;;;;;;;11.05;6.72;;;;;;;;;;5189082;22;20048;-90
2023/09/18 03:59:53;;;;;;;10.38;7.00;;;;;;;;;;5627068;22;20044;-88
2023/09/18 04:02:35;;;;;;;12.07;5.93;;;;;;;;;;5099778;28;20028;-88
2023/09/18 04:05:23;;;;;;;9.70;6.22;;;;;;;;;;5092508;28;20120;-89
2023/09/18 04:07:51;;;;;;;11.60;6.45;;;;;;;;;;5086863;28;20045;-88
2023/09/18 04:10:22;;;;;;;9.40;6.25;;;;;;;;;;5085788;28;20380;-88
2023/09/18 04:12:54;;;;;;;9.48;6.38;;;;;;;;;;5087388;28;20059;-87
2023/09/18 04:15:22;;;;;;;8.50;5.72;;;;;;;;;;5084847;28;20049;-88
2023/09/18 04:18:02;;;;;;;12.30;6.32;;;;;;;;;;5084417;28;20049;-88
2023/09/18 04:20:37;;;;;;;9.95;5.85;;;;;;;;;;5087464;28;20261;-88
2023/09/18 04:23:19;;;;;;;9.98;6.22;;;;;;;;;;5092481;28;20044;-89
2023/09/18 04:26:23;;;;;;;9.23;6.22;;;;;;;;;;5088352;28;20106;-88
2023/09/18 04:29:00;;;;;;;10.40;6.10;;;;;;;;;;5063026;28;20226;-89
2023/09/18 04:31:38;;;;;;;12.30;6.35;;;;;;;;;;5084261;28;20048;-89
2023/09/18 04:34:06;;;;;;;7.40;5.32;;;;;;;;;;5085836;28;20091;-89
2023/09/18 04:36:33;;;;;;;13.80;6.22;;;;;;;;;;5087972;28;20079;-88
2023/09/18 04:39:01;;;;;;;8.73;5.78;;;;;;;;;;5084764;28;20060;-88
2023/09/18 04:41:28;;;;;;;7.38;5.57;;;;;;;;;;5083941;28;20071;-88
2023/09/18 04:43:55;;;;;;;9.00;6.15;;;;;;;;;;5082741;28;20115;-89
2023/09/18 04:46:24;;;;;;;12.65;6.38;;;;;;;;;;5082737;28;20194;-89
2023/09/18 04:48:52;;;;;;;7.63;5.63;;;;;;;;;;5089802;28;20055;-89
2023/09/18 04:51:20;;;;;;;6.95;5.13;;;;;;;;;;5082405;28;20070;-89
2023/09/18 04:53:51;;;;;;;11.95;5.57;;;;;;;;;;5082100;28;20058;-90
2023/09/18 04:56:25;;;;;;;9.85;5.43;;;;;;;;;;5081375;28;20056;-89
2023/09/18 04:58:54;;;;;;;8.77;5.55;;;;;;;;;;5090176;28;20233;-90
2023/09/18 05:01:24;;;;;;;7.20;5.45;;;;;;;;;;5081055;28;20051;-88
2023/09/18 05:04:05;;;;;;;8.45;5.85;;;;;;;;;;5078582;28;20040;-88
2023/09/18 05:06:33;;;;;;;11.73;5.38;;;;;;;;;;5079362;28;20072;-90
2023/09/18 05:09:00;;;;;;;9.07;5.72;;;;;;;;;;5075914;28;20074;-88
2023/09/18 05:11:30;;;;;;;9.38;4.65;;;;;;;;;;5075507;28;20052;-89
2023/09/18 05:13:57;;;;;;;10.80;5.15;;;;;;;;;;5074420;28;20060;-89
2023/09/18 05:16:24;;;;;;;10.70;5.05;;;;;;;;;;5078075;28;20041;-89
2023/09/18 05:18:51;;;;;;;10.52;4.88;;;;;;;;;;5080690;28;20032;-89
2023/09/18 05:21:24;;;;;;;9.40;5.05;;;;;;;;;;5075790;28;20051;-89
2023/09/18 05:23:53;;;;;;;7.45;5.43;;;;;;;;;;5076688;28;20474;-89
2023/09/18 05:26:30;;;;;;;8.35;5.25;;;;;;;;;;5073891;28;20051;-90
2023/09/18 05:28:58;;;;;;;7.95;5.35;;;;;;;;;;5074027;28;20044;-89
2023/09/18 05:31:26;;;;;;;9.02;4.90;;;;;;;;;;5075924;28;20064;-90
2023/09/18 05:44:55;;;;;;;9.75;5.40;;;;;;;;;;5756570;22;20020;-90
2023/09/18 05:48:03;;;;;;;8.20;5.03;;;;;;;;;;5037061;26;20051;-89
2023/09/18 06:19:04;;;;;;;9.25;5.25;;;;;;;;;;5390803;22;20032;-89
2023/09/18 06:41:08;;;;;;;12.85;5.55;;;;;;;;;;5835528;22;20029;-90
2023/09/18 06:51:40;;;;;;;7.37;5.07;;;;;;;;;;5762279;22;20095;-89
2023/09/18 07:03:11;;;;;;;10.48;5.43;;;;;;;;;;5578379;22;20040;-90
2023/09/18 07:05:59;;;;;;;6.93;5.40;;;;;;;;;;5580419;22;20052;-89
2023/09/18 07:11:38;;;;;;;9.77;6.03;;;;;;;;;;5936761;22;20056;-89
2023/09/18 20:31:24;;;;;;;2.78;1.45;;;;;;;;;;5120267;28;20393;-90
2023/09/18 20:33:51;;;;;;;2.15;0.93;;;;;;;;;;5109116;28;20048;-90
2023/09/18 20:36:23;;;;;;;5.15;1.20;;;;;;;;;;5108870;28;20059;-89
2023/09/18 20:38:51;;;;;;;1.13;0.73;;;;;;;;;;5112513;28;20055;-90
2023/09/18 20:41:21;;;;;;;1.33;0.63;;;;;;;;;;5112752;28;20096;-90
2023/09/18 20:43:53;;;;;;;1.48;0.88;;;;;;;;;;5128771;28;20069;-90
2023/09/18 20:46:23;;;;;;;1.40;0.73;;;;;;;;;;5110839;28;20074;-89
2023/09/18 20:48:53;;;;;;;2.50;1.10;;;;;;;;;;5111965;28;20107;-89
2023/09/18 20:51:27;;;;;;;1.50;1.05;;;;;;;;;;5111391;28;20048;-88
2023/09/18 20:54:00;;;;;;;1.80;0.77;;;;;;;;;;5111516;28;20044;-89
2023/09/18 20:56:30;;;;;;;1.08;0.98;;;;;;;;;;5113189;28;20048;-89
2023/09/18 20:59:05;;;;;;;1.38;0.80;;;;;;;;;;5109442;28;20048;-89
2023/09/18 21:01:48;;;;;;;5.18;1.00;;;;;;;;;;5127551;28;20047;-89
2023/09/18 21:04:19;;;;;;;1.50;0.93;;;;;;;;;;5113074;28;20079;-89
2023/09/18 21:07:08;;;;;;;2.55;1.15;;;;;;;;;;5129668;28;20088;-88
2023/09/18 21:09:39;;;;;;;3.35;1.00;;;;;;;;;;5113638;28;20100;-88
2023/09/18 21:12:08;;;;;;;2.38;1.00;;;;;;;;;;5111282;28;20058;-88
2023/09/18 21:14:49;;;;;;;1.15;1.00;;;;;;;;;;5109853;28;20111;-89
2023/09/18 21:17:20;;;;;;;1.40;1.15;;;;;;;;;;5130633;28;20058;-90
2023/09/18 21:19:48;;;;;;;1.88;1.08;;;;;;;;;;5114800;28;20084;-88
2023/09/18 21:22:20;;;;;;;2.88;0.90;;;;;;;;;;5131686;28;20205;-90
2023/09/18 21:24:49;;;;;;;2.45;0.80;;;;;;;;;;5115693;28;20093;-88
2023/09/18 21:27:22;;;;;;;2.03;0.70;;;;;;;;;;5129140;28;20059;-90
2023/09/18 21:29:54;;;;;;;4.00;0.60;;;;;;;;;;5111063;28;20071;-90
2023/09/18 21:32:25;;;;;;;1.10;0.70;;;;;;;;;;5111146;28;20047;-89
2023/09/18 21:34:59;;;;;;;0.40;0.40;;;;;;;;;;5129997;28;20047;-90
2023/09/18 21:37:30;;;;;;;2.53;0.75;;;;;;;;;;5111827;28;20308;-89
2023/09/18 21:40:03;;;;;;;0.03;0.03;;;;;;;;;;5111708;28;20063;-89
2023/09/18 21:42:35;;;;;;;4.65;1.25;;;;;;;;;;5128187;28;20048;-90
2023/09/18 21:45:15;;;;;;;2.92;0.93;;;;;;;;;;5114092;28;20044;-90
2023/09/18 21:47:44;;;;;;;2.92;1.20;;;;;;;;;;5110372;28;20168;-89
2023/09/18 21:50:14;;;;;;;3.72;1.05;;;;;;;;;;5103478;28;20105;-89
2023/09/18 21:52:41;;;;;;;6.45;1.52;;;;;;;;;;5103515;28;20059;-89
2023/09/18 21:55:14;;;;;;;2.50;1.00;;;;;;;;;;5102353;28;20063;-89
2023/09/18 21:57:45;;;;;;;5.30;1.13;;;;;;;;;;5103874;28;20040;-89
2023/09/18 22:00:22;;;;;;;2.10;1.23;;;;;;;;;;5105275;28;20070;-89
2023/09/18 22:02:52;;;;;;;0.10;0.10;;;;;;;;;;5104370;28;20106;-89
2023/09/18 22:05:20;;;;;;;3.90;1.25;;;;;;;;;;5104603;28;20353;-89
2023/09/18 22:07:48;;;;;;;2.72;0.75;;;;;;;;;;5105031;28;20075;-89
2023/09/18 22:10:15;;;;;;;3.75;0.98;;;;;;;;;;5120508;28;20107;-89
2023/09/18 22:12:43;;;;;;;1.35;0.90;;;;;;;;;;5103375;28;20102;-89
2023/09/18 22:15:11;;;;;;;0.15;0.15;;;;;;;;;;5123549;28;20089;-89
2023/09/18 22:17:41;;;;;;;0.65;0.55;;;;;;;;;;5120778;28;20112;-87
2023/09/18 22:24:05;;;;;;;5.28;0.90;;;;;;;;;;5135728;28;20370;-87
2023/09/18 22:26:43;;;;;;;2.78;1.30;;;;;;;;;;5118829;28;20055;-87
2023/09/18 22:29:28;;;;;;;1.00;0.80;;;;;;;;;;5134134;28;20047;-86
2023/09/18 22:32:12;;;;;;;5.13;1.63;;;;;;;;;;5115125;28;20051;-86
2023/09/18 22:34:59;;;;;;;4.68;1.35;;;;;;;;;;5118343;28;20039;-88
2023/09/18 22:37:59;;;;;;;5.78;1.20;;;;;;;;;;5135263;28;20050;-88
2023/09/18 22:40:38;;;;;;;3.47;1.20;;;;;;;;;;5118245;28;20067;-86
2023/09/18 22:43:41;;;;;;;4.20;1.45;;;;;;;;;;5132801;28;20071;-87
2023/09/18 22:46:45;;;;;;;9.50;1.63;;;;;;;;;;5132680;28;20048;-88
2023/09/18 22:49:51;;;;;;;9.43;1.10;;;;;;;;;;5117388;28;20067;-87
2023/09/18 22:52:41;;;;;;;3.03;1.67;;;;;;;;;;5115702;28;20047;-88
2023/09/18 22:55:29;;;;;;;8.82;1.65;;;;;;;;;;5120624;28;20137;-87
2023/09/18 22:58:37;;;;;;;7.47;1.63;;;;;;;;;;5133592;28;20038;-87
2023/09/18 23:01:38;;;;;;;;;;;;;;;;;;;;;
2023/09/18 23:04:29;;;;;;;5.07;2.42;;;;;;;;;;5135310;28;20052;-87
2023/09/18 23:07:11;;;;;;;3.67;1.52;;;;;;;;;;5118425;28;20073;-87
2023/09/18 23:09:53;;;;;;;2.25;1.50;;;;;;;;;;5115159;28;20091;-87
2023/09/18 23:12:28;;;;;;;5.35;1.73;;;;;;;;;;5113019;28;20031;-87
2023/09/18 23:15:08;;;;;;;3.80;1.80;;;;;;;;;;5113758;28;20082;-87
2023/09/18 23:17:47;;;;;;;5.15;1.40;;;;;;;;;;5113558;28;20100;-87
2023/09/18 23:20:15;;;;;;;3.78;1.40;;;;;;;;;;5112561;28;20061;-87
2023/09/18 23:22:47;;;;;;;3.47;2.10;;;;;;;;;;5113180;28;20089;-87
2023/09/18 23:25:23;;;;;;;5.75;2.25;;;;;;;;;;5113309;28;20095;-89
2023/09/18 23:27:52;;;;;;;5.03;2.03;;;;;;;;;;5130830;28;20058;-89
2023/09/18 23:30:20;;;;;;;3.97;1.98;;;;;;;;;;5111964;28;20123;-90
2023/09/18 23:32:51;;;;;;;2.22;1.85;;;;;;;;;;5129635;28;20078;-89
2023/09/18 23:35:32;;;;;;;4.72;2.20;;;;;;;;;;5112526;28;20111;-90
2023/09/18 23:38:01;;;;;;;4.38;2.38;;;;;;;;;;5130974;28;20052;-89
2023/09/18 23:40:32;;;;;;;7.75;2.30;;;;;;;;;;5114468;28;20062;-90
2023/09/18 23:43:04;;;;;;;5.32;2.08;;;;;;;;;;5131502;28;20115;-90
2023/09/18 23:45:33;;;;;;;6.88;2.40;;;;;;;;;;5115414;28;20316;-89
2023/09/18 23:48:11;;;;;;;3.65;2.33;;;;;;;;;;5117912;28;20175;-89
2023/09/18 23:50:58;;;;;;;5.30;2.85;;;;;;;;;;5136242;28;20036;-88
2023/09/18 23:53:29;;;;;;;6.90;2.78;;;;;;;;;;5135606;28;20052;-88
2023/09/18 23:56:00;;;;;;;6.00;2.60;;;;;;;;;;5135725;28;20039;-88
2023/09/18 23:58:31;;;;;;;12.70;2.83;;;;;;;;;;5135741;28;20051;-87
